createdAt,value
2023-05-19T00:01:38.052Z,99040.38
2023-05-19T00:04:40.573Z,99040.59
2023-05-19T00:07:44.030Z,99038.09
2023-05-19T00:10:45.750Z,99031.31
2023-05-19T00:13:49.569Z,99030.56
2023-05-19T00:16:51.258Z,99028.88
2023-05-19T00:19:54.752Z,99023.06
2023-05-19T00:22:56.145Z,99017.44
2023-05-19T00:25:57.556Z,99029.72
2023-05-19T00:28:58.980Z,99017.09
2023-05-19T00:32:00.539Z,99020.22
2023-05-19T00:35:02.045Z,99007.41
2023-05-19T00:38:03.494Z,99008.06
2023-05-19T00:41:05.695Z,99012.13
2023-05-19T00:44:07.610Z,99006.31
2023-05-19T00:47:09.231Z,99002.31
2023-05-19T00:50:10.762Z,99003.25
2023-05-19T00:53:14.481Z,99005.31
2023-05-19T00:56:16.802Z,99009.59
2023-05-19T00:59:18.227Z,99004.50
2023-05-19T01:02:19.819Z,98997.84
2023-05-19T01:05:21.304Z,98994.38
2023-05-19T01:08:23.590Z,98993.25
2023-05-19T01:11:25.112Z,98994.09
2023-05-19T01:14:27.019Z,98991.69
2023-05-19T01:18:14.942Z,98990.09
2023-05-19T01:21:48.540Z,98984.72
2023-05-19T01:25:25.319Z,98981.28
2023-05-19T01:28:35.722Z,98984.53
2023-05-19T01:31:38.703Z,98978.75
2023-05-19T01:34:44.046Z,98976.16
2023-05-19T01:37:47.066Z,98974.22
2023-05-19T01:40:50.250Z,98975.44
2023-05-19T01:43:51.895Z,98968.78
2023-05-19T01:46:53.568Z,98978.44
2023-05-19T01:49:55.048Z,98978.25
2023-05-19T01:52:56.552Z,98979.19
2023-05-19T01:55:58.985Z,98972.81
2023-05-19T01:59:08.751Z,98985.16
2023-05-19T02:02:26.055Z,98974.97
2023-05-19T02:05:38.221Z,98969.22
2023-05-19T02:08:58.970Z,98973.13
2023-05-19T02:12:19.189Z,98973.41
2023-05-19T02:15:29.968Z,98974.88
2023-05-19T02:18:35.369Z,98968.66
2023-05-19T02:21:36.770Z,98965.06
2023-05-19T02:24:39.379Z,98968.59
2023-05-19T02:27:42.099Z,98969.81
2023-05-19T02:30:43.452Z,98974.63
2023-05-19T02:33:44.863Z,98967.38
2023-05-19T02:36:49.688Z,98960.50
2023-05-19T02:39:51.246Z,98965.63
2023-05-19T02:42:52.617Z,98958.84
2023-05-19T02:45:54.065Z,98960.81
2023-05-19T02:48:55.565Z,98952.19
2023-05-19T02:51:57.319Z,98948.94
2023-05-19T02:54:58.915Z,98941.00
2023-05-19T02:58:00.300Z,98941.94
2023-05-19T03:01:02.511Z,98939.22
2023-05-19T03:04:03.975Z,98939.75
2023-05-19T03:07:06.135Z,98937.81
2023-05-19T03:10:08.398Z,98939.47
2023-05-19T03:13:09.778Z,98939.66
2023-05-19T03:16:11.797Z,98943.59
2023-05-19T03:19:13.350Z,98942.47
2023-05-19T03:22:14.812Z,98937.66
2023-05-19T03:25:17.061Z,98935.50
2023-05-19T03:28:18.456Z,98944.97
2023-05-19T03:31:19.874Z,98941.44
2023-05-19T03:34:22.382Z,98942.91
2023-05-19T03:37:23.844Z,98937.16
2023-05-19T03:40:25.322Z,98941.78
2023-05-19T03:43:26.723Z,98941.78
2023-05-19T03:46:28.446Z,98950.69
2023-05-19T03:49:29.942Z,98952.25
2023-05-19T03:52:31.338Z,98954.13
2023-05-19T03:55:32.751Z,98953.38
2023-05-19T03:58:34.385Z,98954.88
2023-05-19T04:01:36.523Z,98961.00
2023-05-19T04:04:38.076Z,98958.22
2023-05-19T04:07:39.535Z,98966.28
2023-05-19T04:10:40.906Z,98969.34
2023-05-19T04:13:42.318Z,98966.75
2023-05-19T04:16:43.979Z,98965.81
2023-05-19T04:19:45.348Z,98966.75
2023-05-19T04:22:46.749Z,98966.84
2023-05-19T04:25:51.158Z,98964.63
2023-05-19T04:28:53.870Z,98974.06
2023-05-19T04:31:56.040Z,98979.38
2023-05-19T04:34:58.881Z,98979.09
2023-05-19T04:38:01.655Z,98975.69
2023-05-19T04:41:04.220Z,98977.13
2023-05-19T04:44:07.753Z,98975.47
2023-05-19T04:47:10.254Z,98976.78
2023-05-19T04:50:11.750Z,98963.94
2023-05-19T04:53:13.125Z,98976.88
2023-05-19T04:56:15.391Z,98974.06
2023-05-19T04:59:16.977Z,98970.47
2023-05-19T05:02:18.491Z,98968.66
2023-05-19T05:05:19.989Z,98976.03
2023-05-19T05:08:25.419Z,98975.75
2023-05-19T05:11:27.075Z,98976.25
2023-05-19T05:14:28.749Z,98970.94
2023-05-19T05:17:30.717Z,98978.44
2023-05-19T05:20:32.874Z,98974.00
2023-05-19T05:23:34.794Z,98959.81
2023-05-19T05:26:36.536Z,98962.69
2023-05-19T05:29:37.949Z,98957.66
2023-05-19T05:32:39.703Z,98951.50
2023-05-19T05:35:41.209Z,98957.81
2023-05-19T05:38:42.596Z,98952.91
2023-05-19T05:41:44.032Z,98951.88
2023-05-19T05:44:45.579Z,98944.81
2023-05-19T05:47:47.363Z,98942.41
2023-05-19T05:50:49.981Z,98952.59
2023-05-19T05:53:54.113Z,98959.00
2023-05-19T05:56:55.808Z,98959.38
2023-05-19T05:59:57.596Z,98956.13
2023-05-19T06:02:59.356Z,98961.13
2023-05-19T06:06:01.787Z,98959.81
2023-05-19T06:09:03.762Z,98959.16
2023-05-19T06:12:06.555Z,98959.34
2023-05-19T06:15:08.227Z,98957.53
2023-05-19T06:18:09.769Z,98957.59
2023-05-19T06:21:13.190Z,98956.78
2023-05-19T06:24:14.659Z,98954.31
2023-05-19T06:27:16.049Z,98953.28
2023-05-19T06:30:17.466Z,98957.66
2023-05-19T06:33:18.868Z,98953.78
2023-05-19T06:36:20.629Z,98954.72
2023-05-19T06:39:22.030Z,98954.94
2023-05-19T06:42:24.630Z,98953.47
2023-05-19T06:45:26.451Z,98953.78
2023-05-19T06:48:27.929Z,98963.25
2023-05-19T06:51:29.374Z,98951.88
2023-05-19T06:54:30.902Z,98950.81
2023-05-19T06:57:32.327Z,98952.47
2023-05-19T07:00:33.975Z,98945.00
2023-05-19T07:03:35.658Z,98948.69
2023-05-19T07:06:37.217Z,98944.91
2023-05-19T07:09:38.889Z,98946.53
2023-05-19T07:12:40.340Z,98946.19
2023-05-19T07:15:41.821Z,98942.22
2023-05-19T07:18:43.251Z,98935.63
2023-05-19T07:21:44.651Z,98934.03
2023-05-19T07:24:46.046Z,98939.00
2023-05-19T07:27:47.526Z,98922.66
2023-05-19T07:30:49.860Z,98928.47
2023-05-19T07:33:54.310Z,98928.81
2023-05-19T07:36:56.251Z,98923.28
2023-05-19T07:39:57.733Z,98919.41
2023-05-19T07:42:59.161Z,98920.22
2023-05-19T07:46:00.816Z,98923.16
2023-05-19T07:49:02.366Z,98913.00
2023-05-19T07:52:03.946Z,98912.44
2023-05-19T07:55:05.692Z,98902.47
2023-05-19T07:58:07.335Z,98907.47
2023-05-19T08:01:08.762Z,98901.41
2023-05-19T08:04:12.712Z,98906.53
2023-05-19T08:07:14.689Z,98907.00
2023-05-19T08:10:16.171Z,98905.81
2023-05-19T08:13:17.648Z,98894.94
2023-05-19T08:16:19.166Z,98898.44
2023-05-19T08:19:20.814Z,98899.13
2023-05-19T08:22:22.467Z,98896.06
2023-05-19T08:25:23.873Z,98900.97
2023-05-19T08:28:25.433Z,98894.66
2023-05-19T08:31:27.237Z,98907.16
2023-05-19T08:34:28.677Z,98898.97
2023-05-19T08:37:31.486Z,98897.97
2023-05-19T08:44:57.571Z,98892.88
2023-05-19T08:47:59.178Z,98886.09
2023-05-19T08:51:10.964Z,98881.50
2023-05-19T08:54:15.674Z,98881.50
2023-05-19T08:57:17.373Z,98879.94
2023-05-19T09:00:19.880Z,98873.28
2023-05-19T09:03:24.006Z,98863.91
2023-05-19T09:06:26.871Z,98870.16
2023-05-19T09:09:29.461Z,98871.72
2023-05-19T09:12:31.477Z,98877.38
2023-05-19T09:15:36.886Z,98874.03
2023-05-19T09:18:40.635Z,98873.59
2023-05-19T09:21:43.223Z,98865.75
2023-05-19T09:24:47.546Z,98862.13
2023-05-19T09:27:49.813Z,98865.41
2023-05-19T09:31:09.021Z,98864.91
2023-05-19T09:34:14.284Z,98863.81
2023-05-19T09:37:15.816Z,98858.53
2023-05-19T09:40:17.333Z,98869.47
2023-05-19T09:43:18.864Z,98860.53
2023-05-19T09:46:28.212Z,98853.03
2023-05-19T09:49:31.213Z,98847.22
2023-05-19T09:52:36.103Z,98860.38
2023-05-19T09:55:37.571Z,98856.47
2023-05-19T09:58:42.233Z,98859.59
2023-05-19T10:01:46.655Z,98856.88
2023-05-19T10:04:48.566Z,98854.47
2023-05-19T10:07:52.337Z,98846.06
2023-05-19T10:10:54.147Z,98843.50
2023-05-19T10:13:55.932Z,98845.56
2023-05-19T10:16:58.957Z,98837.97
2023-05-19T10:20:00.805Z,98831.22
2023-05-19T10:23:03.207Z,98822.75
2023-05-19T10:26:06.849Z,98827.41
2023-05-19T10:29:08.475Z,98821.66
2023-05-19T10:32:21.566Z,98825.00
2023-05-19T10:35:35.852Z,98808.41
2023-05-19T10:38:48.271Z,98804.41
2023-05-19T10:42:15.543Z,98799.34
2023-05-19T10:45:22.377Z,98801.97
2023-05-19T10:48:24.033Z,98806.63
2023-05-19T10:51:32.228Z,98797.25
2023-05-19T10:54:43.456Z,98791.88
2023-05-19T10:57:56.683Z,98797.38
2023-05-19T11:01:01.707Z,98800.00
2023-05-19T11:04:07.854Z,98801.97
2023-05-19T11:07:10.369Z,98798.91
2023-05-19T11:10:12.224Z,98791.75
2023-05-19T11:13:22.580Z,98790.63
2023-05-19T11:16:29.530Z,98783.28
2023-05-19T11:19:37.268Z,98786.50
2023-05-19T11:22:39.893Z,98779.41
2023-05-19T11:25:48.986Z,98782.03
2023-05-19T11:28:52.023Z,98777.63
2023-05-19T11:31:54.314Z,98783.69
2023-05-19T11:34:56.826Z,98776.50
2023-05-19T11:37:59.090Z,98773.63
2023-05-19T11:41:00.965Z,98770.88
2023-05-19T11:44:02.461Z,98759.63
2023-05-19T11:47:08.048Z,98768.28
2023-05-19T11:50:11.363Z,98763.47
2023-05-19T11:53:14.085Z,98762.59
2023-05-19T11:56:15.555Z,98756.97
2023-05-19T13:15:38.124Z,98694.19
2023-05-19T13:18:39.736Z,98687.56
2023-05-19T13:21:41.289Z,98684.16
2023-05-19T13:24:42.661Z,98685.03
2023-05-19T13:27:45.752Z,98677.56
2023-05-19T13:30:47.218Z,98680.50
2023-05-19T13:33:48.724Z,98675.44
2023-05-19T13:36:50.103Z,98667.41
2023-05-19T13:39:51.652Z,98667.56
2023-05-19T13:42:52.968Z,98660.16
2023-05-19T13:45:54.313Z,98678.88
2023-05-19T13:48:55.783Z,98672.19
2023-05-19T13:51:58.244Z,98676.78
2023-05-19T13:54:59.579Z,98670.22
2023-05-19T13:58:00.928Z,98668.25
2023-05-19T14:01:02.250Z,98666.31
2023-05-19T14:04:04.441Z,98666.84
2023-05-19T14:07:07.174Z,98671.22
2023-05-19T14:10:08.871Z,98657.94
2023-05-19T14:13:31.498Z,98668.72
2023-05-19T14:16:34.553Z,98657.09
2023-05-19T14:19:36.534Z,98651.16
2023-05-19T14:22:38.055Z,98652.47
2023-05-19T14:25:39.525Z,98650.38
2023-05-19T14:28:40.991Z,98655.38
2023-05-19T14:31:42.393Z,98651.81
2023-05-19T14:34:43.848Z,98647.72
2023-05-19T14:37:45.195Z,98641.81
2023-05-19T14:40:48.452Z,98642.72
2023-05-19T14:43:49.864Z,98642.16
2023-05-19T14:46:51.303Z,98637.94
2023-05-19T14:49:52.758Z,98635.78
2023-05-19T14:52:54.143Z,98639.59
2023-05-19T14:55:55.601Z,98624.91
2023-05-19T14:58:56.950Z,98628.00
2023-05-19T15:01:58.300Z,98640.72
2023-05-19T15:05:00.906Z,98634.16
2023-05-19T15:08:03.248Z,98633.75
2023-05-19T15:11:06.103Z,98629.31
2023-05-19T15:14:07.419Z,98623.19
2023-05-19T15:17:08.806Z,98630.44
2023-05-19T15:20:10.394Z,98632.41
2023-05-19T15:23:11.969Z,98630.91
2023-05-19T15:26:13.565Z,98633.50
2023-05-19T15:29:14.975Z,98630.63
2023-05-19T15:32:16.373Z,98627.06
2023-05-19T15:35:17.784Z,98634.22
2023-05-19T15:38:19.431Z,98635.00
2023-05-19T15:41:21.765Z,98645.44
2023-05-19T15:44:23.082Z,98640.31
2023-05-19T15:47:24.530Z,98644.06
2023-05-19T15:50:26.728Z,98641.28
2023-05-19T15:53:28.139Z,98635.34
2023-05-19T15:56:29.480Z,98637.22
2023-05-19T15:59:30.901Z,98637.84
2023-05-19T16:02:32.389Z,98640.44
2023-05-19T16:05:35.678Z,98633.50
2023-05-19T16:08:38.113Z,98633.50
2023-05-19T16:11:39.483Z,98636.97
2023-05-19T16:14:41.038Z,98637.06
2023-05-19T16:17:42.682Z,98638.59
2023-05-19T16:20:44.176Z,98628.16
2023-05-19T16:23:45.573Z,98629.25
2023-05-19T16:26:48.601Z,98620.34
2023-05-19T16:29:50.040Z,98615.91
2023-05-19T16:32:53.167Z,98621.25
2023-05-19T16:35:54.601Z,98626.03
2023-05-19T16:38:55.962Z,98618.47
2023-05-19T16:41:57.285Z,98624.97
2023-05-19T16:44:58.618Z,98618.53
2023-05-19T16:48:00.032Z,98627.75
2023-05-19T16:51:01.465Z,98623.97
2023-05-19T16:54:02.866Z,98626.59
2023-05-19T16:57:04.249Z,98617.38
2023-05-19T17:00:05.919Z,98617.03
2023-05-19T17:03:07.344Z,98615.31
2023-05-19T17:06:08.755Z,98620.25
2023-05-19T17:09:10.073Z,98618.88
2023-05-19T17:12:11.437Z,98623.41
2023-05-19T17:15:12.790Z,98619.66
2023-05-19T17:18:16.012Z,98618.22
2023-05-19T17:21:17.636Z,98610.63
2023-05-19T17:24:19.175Z,98616.50
2023-05-19T17:27:20.594Z,98622.75
2023-05-19T17:30:22.119Z,98622.09
2023-05-19T17:33:23.568Z,98627.22
2023-05-19T17:36:24.899Z,98630.84
2023-05-19T17:39:26.301Z,98627.78
2023-05-19T17:42:29.117Z,98625.06
2023-05-19T17:45:30.707Z,98618.47
2023-05-19T17:48:32.111Z,98625.25
2023-05-19T17:51:33.555Z,98633.97
2023-05-19T17:54:35.017Z,98638.38
2023-05-19T17:57:37.302Z,98635.50
2023-05-19T18:01:34.728Z,98630.41
2023-05-19T18:04:40.182Z,98632.16
2023-05-19T18:07:42.138Z,98638.00
2023-05-19T18:10:46.496Z,98633.97
2023-05-19T18:13:47.859Z,98638.75
2023-05-19T18:16:50.001Z,98634.31
2023-05-19T18:19:51.501Z,98635.16
2023-05-19T18:22:52.996Z,98638.09
2023-05-19T18:25:54.383Z,98627.28
2023-05-19T18:28:55.909Z,98631.31
2023-05-19T18:31:57.343Z,98630.09
2023-05-19T18:34:58.709Z,98643.09
2023-05-19T18:38:00.170Z,98633.78
2023-05-19T18:41:01.522Z,98632.88
2023-05-19T18:44:02.917Z,98634.91
2023-05-19T18:47:04.337Z,98638.88
2023-05-19T18:50:06.962Z,98634.22
2023-05-19T18:53:08.299Z,98631.91
2023-05-19T18:56:11.063Z,98635.34
2023-05-19T18:59:12.418Z,98644.25
2023-05-19T19:02:13.859Z,98651.38
2023-05-19T19:05:15.251Z,98646.13
2023-05-19T19:08:17.456Z,98649.91
2023-05-19T19:11:18.895Z,98656.41
2023-05-19T19:14:20.383Z,98663.38
2023-05-19T19:17:21.882Z,98660.41
2023-05-19T19:20:23.341Z,98662.66
2023-05-19T19:23:24.778Z,98666.56
2023-05-19T19:30:23.156Z,98672.66
2023-05-19T19:33:24.782Z,98678.34
2023-05-19T19:36:26.336Z,98670.66
2023-05-19T19:39:27.668Z,98670.63
2023-05-19T19:42:29.702Z,98680.00
2023-05-19T19:45:32.113Z,98681.13
2023-05-19T19:48:33.478Z,98677.72
2023-05-19T19:51:34.845Z,98684.72
2023-05-19T19:54:36.261Z,98685.69
2023-05-19T19:57:37.674Z,98676.75
2023-05-19T20:00:39.240Z,98688.50
2023-05-19T20:03:40.817Z,98689.75
2023-05-19T20:06:42.279Z,98691.81
2023-05-19T20:09:43.617Z,98681.22
2023-05-19T20:12:47.132Z,98678.59
2023-05-19T20:15:48.612Z,98678.84
2023-05-19T20:18:50.637Z,98687.09
2023-05-19T20:21:52.141Z,98681.34
2023-05-19T20:24:53.500Z,98678.41
2023-05-19T20:27:54.920Z,98682.69
2023-05-19T20:30:56.365Z,98687.94
2023-05-19T20:33:59.338Z,98684.88
2023-05-19T20:37:02.246Z,98677.75
2023-05-19T20:40:03.764Z,98675.78
2023-05-19T20:43:05.172Z,98672.22
2023-05-19T20:46:06.685Z,98679.53
2023-05-19T20:49:08.058Z,98676.47
2023-05-19T20:52:09.443Z,98668.91
2023-05-19T20:55:10.924Z,98675.06
2023-05-19T20:58:12.337Z,98679.38
2023-05-19T21:01:13.926Z,98677.69
2023-05-19T21:04:15.406Z,98680.75
2023-05-19T21:07:17.455Z,98684.00
2023-05-19T21:10:18.897Z,98678.47
2023-05-19T21:13:21.759Z,98677.81
2023-05-19T21:16:23.416Z,98680.19
2023-05-19T21:19:25.074Z,98686.19
2023-05-19T21:22:27.289Z,98674.38
2023-05-19T21:25:31.519Z,98682.63
2023-05-19T21:28:33.041Z,98670.78
2023-05-19T21:31:37.530Z,98675.88
2023-05-19T21:34:39.061Z,98680.16
2023-05-19T21:37:40.563Z,98671.97
2023-05-19T21:40:41.957Z,98669.22
2023-05-19T21:43:45.251Z,98680.84
2023-05-19T21:46:46.885Z,98679.41
2023-05-19T21:49:48.269Z,98681.06
2023-05-19T21:52:49.610Z,98669.44
2023-05-19T21:55:51.157Z,98667.84
2023-05-19T21:58:52.571Z,98667.41
2023-05-19T22:01:53.961Z,98668.63
2023-05-19T22:04:55.305Z,98676.47
2023-05-19T22:07:56.685Z,98671.50
2023-05-19T22:10:58.118Z,98672.38
2023-05-19T22:13:59.551Z,98671.22
2023-05-19T22:17:00.957Z,98667.78
2023-05-19T22:20:02.321Z,98669.56
2023-05-19T22:23:04.243Z,98660.63
2023-05-19T22:26:06.008Z,98657.44
2023-05-19T22:29:07.344Z,98663.53
2023-05-19T22:32:11.832Z,98651.69
2023-05-19T22:35:13.393Z,98648.50
2023-05-19T22:38:14.725Z,98653.34
2023-05-19T22:41:16.046Z,98646.16
2023-05-19T22:44:19.530Z,98630.69
2023-05-19T22:47:20.866Z,98636.94
2023-05-19T22:50:22.621Z,98642.00
2023-05-19T22:53:24.019Z,98634.72
2023-05-19T22:56:26.049Z,98634.59
2023-05-19T22:59:27.582Z,98629.19
2023-05-19T23:02:28.959Z,98636.38
2023-05-19T23:05:30.511Z,98630.00
2023-05-19T23:08:31.840Z,98633.72
2023-05-19T23:11:34.172Z,98634.69
2023-05-19T23:14:35.618Z,98630.34
2023-05-19T23:17:37.372Z,98627.22
2023-05-19T23:20:38.760Z,98619.94
2023-05-19T23:23:40.088Z,98615.47
2023-05-19T23:26:44.371Z,98614.81
2023-05-19T23:29:49.084Z,98610.56
2023-05-19T23:32:50.531Z,98611.28
2023-05-19T23:35:51.949Z,98612.03
2023-05-19T23:38:53.376Z,98608.03
2023-05-19T23:41:54.737Z,98603.59
2023-05-19T23:44:56.093Z,98606.09
2023-05-19T23:47:57.483Z,98605.13
2023-05-19T23:50:58.867Z,98609.78
2023-05-19T23:54:00.363Z,98605.63
2023-05-19T23:57:02.772Z,98603.59
